Time;durP1;ratioP1;P1;durP2;ratioP2;P2;SDS_P1;SDS_P2;PMS_P1;PMS_P2;Temp;Humidity;BMP_temperature;BMP_pressure;BME280_temperature;BME280_humidity;BME280_pressure;Samples;Min_cycle;Max_cycle;Signal;HPM_P1;HPM_P2
2022/04/19 00:01:20;;;;;;;7.38;4.88;;;;;;;6.60;100.00;96033.56;5102267;27;20078;-50
2022/04/19 00:03:48;;;;;;;4.80;4.38;;;;;;;6.58;100.00;96025.03;5099942;27;20467;-51
2022/04/19 00:06:17;;;;;;;4.97;4.35;;;;;;;6.58;100.00;96022.41;5107317;27;20079;-50
2022/04/19 00:08:46;;;;;;;6.28;4.88;;;;;;;6.36;100.00;96029.44;5103253;28;20074;-51
2022/04/19 00:11:15;;;;;;;4.90;4.30;;;;;;;6.15;100.00;96023.41;5100812;28;20447;-54
2022/04/19 00:13:44;;;;;;;4.97;4.40;;;;;;;6.18;100.00;96017.91;5105435;27;20067;-55
2022/04/19 00:16:14;;;;;;;4.57;4.10;;;;;;;6.44;100.00;96014.91;5105710;28;20100;-55
2022/04/19 00:18:42;;;;;;;5.38;4.82;;;;;;;6.55;100.00;96009.56;5098066;28;20455;-55
2022/04/19 00:21:10;;;;;;;5.57;4.95;;;;;;;6.56;100.00;96008.59;5102307;28;20090;-55
2022/04/19 00:23:39;;;;;;;5.85;4.80;;;;;;;6.57;100.00;96003.25;5102135;28;20647;-49
2022/04/19 00:26:07;;;;;;;5.25;4.75;;;;;;;6.34;100.00;95994.72;5091174;28;20071;-58
2022/04/19 00:28:36;;;;;;;5.18;4.68;;;;;;;6.37;100.00;95997.09;5103683;28;20431;-54
2022/04/19 00:31:05;;;;;;;5.28;4.78;;;;;;;6.40;100.00;95995.97;5105485;28;20063;-54
2022/04/19 00:33:37;;;;;;;5.20;4.70;;;;;;;6.18;100.00;95984.72;5099270;28;20083;-55
2022/04/19 00:36:07;;;;;;;5.28;4.78;;;;;;;6.32;100.00;95983.53;5106047;28;20463;-51
2022/04/19 00:38:35;;;;;;;5.95;4.82;;;;;;;6.39;100.00;95976.00;5104174;28;20071;-52
2022/04/19 00:41:03;;;;;;;6.60;4.70;;;;;;;6.47;100.00;95975.34;5102762;28;20067;-54
2022/04/19 00:43:32;;;;;;;6.30;5.18;;;;;;;6.51;100.00;95979.38;5096600;28;20070;-51
2022/04/19 00:46:00;;;;;;;5.90;5.30;;;;;;;6.31;100.00;95978.44;5107088;28;20056;-58
2022/04/19 00:48:30;;;;;;;8.13;5.00;;;;;;;6.63;100.00;95967.81;5100952;28;20071;-59
2022/04/19 00:50:58;;;;;;;6.20;4.93;;;;;;;6.52;100.00;95963.50;5105661;28;20076;-56
2022/04/19 00:53:28;;;;;;;6.53;5.25;;;;;;;6.55;100.00;95958.00;5099091;28;20064;-55
2022/04/19 00:55:59;;;;;;;5.75;4.88;;;;;;;6.48;100.00;95961.28;5104342;28;20600;-52
2022/04/19 00:58:27;;;;;;;5.53;4.80;;;;;;;6.31;100.00;95957.50;5100140;28;20062;-50
2022/04/19 01:00:56;;;;;;;5.60;4.97;;;;;;;6.44;100.00;95963.34;5104626;28;20063;-53
2022/04/19 01:03:24;;;;;;;5.82;5.07;;;;;;;6.44;100.00;95957.28;5100311;28;20083;-50
2022/04/19 01:05:55;;;;;;;5.22;4.75;;;;;;;6.38;100.00;95958.63;5103147;27;20086;-50
2022/04/19 01:08:24;;;;;;;5.18;4.68;;;;;;;6.10;100.00;95953.13;5112652;27;20066;-56
2022/04/19 01:13:17;;;;;;;5.32;4.82;;;;;;;6.24;100.00;95949.34;5101468;27;20071;-55
2022/04/19 01:13:40;;;;;;;5.35;4.75;;;;;;;6.22;100.00;95940.75;5106356;27;20071;-54
2022/04/19 01:16:09;;;;;;;4.95;4.47;;;;;;;6.14;100.00;95943.22;5102426;27;20068;-48
2022/04/19 01:18:37;;;;;;;5.43;4.65;;;;;;;6.17;100.00;95943.78;5104226;27;20102;-53
2022/04/19 01:21:08;;;;;;;5.80;5.20;;;;;;;6.14;100.00;95933.56;5104295;28;20086;-58
2022/04/19 01:23:41;;;;;;;5.57;4.78;;;;;;;6.02;100.00;95934.63;5107928;27;20449;-50
2022/04/19 01:26:09;;;;;;;5.70;5.07;;;;;;;6.15;100.00;95937.84;5106324;28;20067;-50
2022/04/19 01:28:38;;;;;;;4.95;4.45;;;;;;;6.05;100.00;95928.28;5103619;27;20113;-54
2022/04/19 01:31:06;;;;;;;6.43;5.07;;;;;;;5.99;100.00;95929.66;5105053;27;20078;-50
2022/04/19 01:33:35;;;;;;;5.53;4.90;;;;;;;6.12;100.00;95929.41;5104106;27;20076;-54
2022/04/19 01:36:03;;;;;;;5.60;5.05;;;;;;;6.15;100.00;95932.59;5107304;27;20071;-54
2022/04/19 01:38:31;;;;;;;5.82;4.75;;;;;;;6.09;100.00;95924.44;5103818;28;20067;-50
2022/04/19 01:41:01;;;;;;;7.57;5.03;;;;;;;6.00;100.00;95925.25;5109425;27;20060;-54
2022/04/19 01:43:29;;;;;;;5.45;4.80;;;;;;;6.04;100.00;95926.63;5107749;27;20089;-60
2022/04/19 01:45:58;;;;;;;5.45;4.60;;;;;;;5.86;100.00;95928.97;5100858;27;20060;-51
2022/04/19 01:48:26;;;;;;;6.20;5.07;;;;;;;5.62;100.00;95927.44;5103664;27;20067;-55
2022/04/19 01:50:54;;;;;;;5.57;4.65;;;;;;;5.59;100.00;95932.94;5110978;27;20482;-53
2022/04/19 01:53:23;;;;;;;5.90;4.70;;;;;;;5.75;100.00;95932.50;5105541;27;20078;-57
2022/04/19 01:55:51;;;;;;;5.40;4.90;;;;;;;5.87;100.00;95928.00;5107123;27;20068;-51
2022/04/19 01:58:21;;;;;;;5.93;4.93;;;;;;;6.08;100.00;95922.78;5102277;27;20070;-54
2022/04/19 02:00:49;;;;;;;5.23;4.57;;;;;;;6.04;100.00;95924.84;5102398;27;20059;-57
2022/04/19 02:03:18;;;;;;;8.88;5.10;;;;;;;5.55;100.00;95923.69;5109244;27;20185;-59
2022/04/19 02:05:46;;;;;;;7.68;5.18;;;;;;;5.61;100.00;95925.81;5102191;28;20482;-60
2022/04/19 02:08:14;;;;;;;8.15;5.07;;;;;;;5.39;100.00;95926.72;5103964;27;20073;-60
2022/04/19 02:10:43;;;;;;;5.93;4.95;;;;;;;5.47;100.00;95923.47;5100409;28;20071;-60
2022/04/19 02:13:13;;;;;;;6.35;5.07;;;;;;;5.53;100.00;95927.38;5107171;27;20599;-57
2022/04/19 02:15:43;;;;;;;5.03;4.53;;;;;;;5.64;100.00;95925.56;5097500;27;20181;-52
2022/04/19 02:18:11;;;;;;;6.97;5.30;;;;;;;5.84;100.00;95923.03;5105578;27;20043;-56
2022/04/19 02:20:40;;;;;;;8.93;4.95;;;;;;;5.94;100.00;95918.72;5097532;27;20534;-56
2022/04/19 02:23:09;;;;;;;7.53;5.35;;;;;;;6.15;100.00;95922.13;5104500;27;20540;-55
2022/04/19 02:25:37;;;;;;;8.52;4.72;;;;;;;6.05;100.00;95920.44;5082084;28;20035;-58
2022/04/19 02:28:06;;;;;;;7.07;4.82;;;;;;;5.91;100.00;95911.91;5103935;28;20070;-55
2022/04/19 02:30:35;;;;;;;5.25;4.75;;;;;;;5.88;100.00;95906.13;5105787;27;20760;-54
2022/04/19 02:33:05;;;;;;;6.38;4.65;;;;;;;6.18;100.00;95908.78;5102303;27;20043;-58
2022/04/19 02:35:33;;;;;;;5.35;4.85;;;;;;;6.10;100.00;95905.19;5099685;28;20484;-54
2022/04/19 02:38:01;;;;;;;6.20;5.38;;;;;;;6.03;100.00;95902.25;5104888;27;20070;-58
2022/04/19 02:40:30;;;;;;;5.72;5.00;;;;;;;5.84;100.00;95897.69;5111497;27;20090;-57
2022/04/19 02:42:58;;;;;;;5.57;5.07;;;;;;;6.01;100.00;95898.94;5116790;27;20071;-56
2022/04/19 02:45:26;;;;;;;5.30;4.78;;;;;;;6.04;100.00;95898.66;5111808;27;20530;-56
2022/04/19 02:48:03;;;;;;;5.57;5.00;;;;;;;5.94;100.00;95893.38;5125491;27;20090;-57
2022/04/19 02:50:33;;;;;;;6.22;4.78;;;;;;;5.87;100.00;95892.22;5116435;27;20539;-56
2022/04/19 02:53:04;;;;;;;5.55;4.63;;;;;;;6.17;100.00;95893.22;5122457;27;20070;-58
2022/04/19 02:55:32;;;;;;;6.70;5.13;;;;;;;6.07;100.00;95894.97;5103400;28;20509;-55
2022/04/19 02:58:01;;;;;;;5.75;5.03;;;;;;;6.36;100.00;95895.91;5123503;27;20070;-53
2022/04/19 03:00:29;;;;;;;5.85;5.30;;;;;;;6.25;100.00;95898.63;5114889;27;20074;-59
2022/04/19 03:02:58;;;;;;;5.45;4.80;;;;;;;6.24;100.00;95894.34;5098216;28;20079;-54
2022/04/19 03:05:26;;;;;;;8.13;4.75;;;;;;;6.32;100.00;95888.44;5098683;28;20055;-57
2022/04/19 03:07:56;;;;;;;5.53;5.03;;;;;;;6.31;100.00;95886.81;5100752;28;20058;-54
2022/04/19 03:10:24;;;;;;;7.43;5.43;;;;;;;6.14;100.00;95899.53;5094760;28;20541;-53
2022/04/19 03:12:52;;;;;;;7.00;4.60;;;;;;;6.07;100.00;95895.78;5089931;28;20513;-56
2022/04/19 03:15:21;;;;;;;8.45;5.80;;;;;;;5.79;100.00;95897.28;5100270;28;20083;-56
2022/04/19 03:17:49;;;;;;;6.40;4.85;;;;;;;6.07;100.00;95892.34;5117262;27;20407;-52
2022/04/19 03:20:18;;;;;;;6.32;5.22;;;;;;;6.01;100.00;95890.25;5112256;27;20040;-59
2022/04/19 03:28:18;;;;;;;5.05;4.55;;;;;;;6.10;100.00;95898.16;5107349;27;20070;-59
2022/04/19 03:30:47;;;;;;;7.20;4.70;;;;;;;5.77;100.00;95898.34;5104775;27;20063;-62
2022/04/19 03:33:16;;;;;;;5.60;4.78;;;;;;;5.94;100.00;95898.63;5118945;27;20078;-59
2022/04/19 03:35:44;;;;;;;8.18;4.90;;;;;;;5.96;100.00;95902.91;5108246;27;20075;-57
2022/04/19 03:38:12;;;;;;;9.20;5.10;;;;;;;5.52;100.00;95896.97;5104950;27;20070;-55
2022/04/19 03:40:42;;;;;;;5.57;4.97;;;;;;;5.90;100.00;95893.75;5100758;27;20066;-54
2022/04/19 03:43:10;;;;;;;8.27;5.10;;;;;;;5.91;100.00;95891.00;5097918;28;20072;-53
2022/04/19 03:45:39;;;;;;;6.10;4.53;;;;;;;5.93;100.00;95889.13;5101201;27;20075;-58
2022/04/19 03:48:08;;;;;;;7.13;5.40;;;;;;;5.99;100.00;95890.41;5101893;27;20483;-54
2022/04/19 03:50:36;;;;;;;8.10;5.20;;;;;;;5.94;100.00;95889.94;5103757;27;20070;-56
2022/04/19 03:53:05;;;;;;;7.47;5.03;;;;;;;5.85;100.00;95881.06;5099533;27;20533;-55
2022/04/19 03:55:33;;;;;;;10.65;5.32;;;;;;;5.61;100.00;95875.25;5104037;27;20084;-55
2022/04/19 03:58:04;;;;;;;7.50;4.93;;;;;;;5.42;100.00;95889.88;5103298;27;20063;-57
2022/04/19 04:00:33;;;;;;;6.53;5.10;;;;;;;5.20;100.00;95892.63;5105943;27;20090;-54
2022/04/19 04:03:01;;;;;;;7.47;5.07;;;;;;;5.19;100.00;95896.16;5100999;28;20070;-53
2022/04/19 04:05:30;;;;;;;7.05;5.20;;;;;;;5.35;100.00;95896.56;5101366;27;20071;-58
2022/04/19 04:07:59;;;;;;;5.90;5.18;;;;;;;5.29;100.00;95891.84;5104630;28;20059;-54
2022/04/19 04:10:27;;;;;;;5.57;5.07;;;;;;;5.21;100.00;95902.09;5104327;27;20059;-53
2022/04/19 04:12:57;;;;;;;7.25;5.15;;;;;;;4.92;100.00;95902.69;5097632;28;20064;-55
2022/04/19 04:15:27;;;;;;;8.10;5.43;;;;;;;4.92;100.00;95909.66;5099412;28;20090;-57
2022/04/19 04:17:55;;;;;;;6.83;5.00;;;;;;;4.87;100.00;95907.44;5102260;28;20597;-58
2022/04/19 04:20:23;;;;;;;8.10;5.00;;;;;;;4.75;100.00;95908.44;5101184;28;20067;-58
2022/04/19 04:22:52;;;;;;;8.32;5.15;;;;;;;4.91;100.00;95908.03;5097706;28;20508;-55
2022/04/19 04:25:20;;;;;;;8.10;4.90;;;;;;;4.62;100.00;95905.13;5102419;28;20454;-57
2022/04/19 04:27:49;;;;;;;7.07;5.07;;;;;;;4.86;100.00;95903.19;5097325;28;20067;-54
2022/04/19 04:30:17;;;;;;;6.53;5.20;;;;;;;5.07;100.00;95895.38;5098342;28;20556;-57
2022/04/19 04:32:47;;;;;;;9.20;5.20;;;;;;;4.85;100.00;95898.91;5099098;28;20035;-54
2022/04/19 04:35:15;;;;;;;9.98;5.57;;;;;;;5.14;100.00;95893.09;5100996;28;20066;-58
2022/04/19 04:37:43;;;;;;;5.55;5.00;;;;;;;4.92;100.00;95902.69;5098599;28;20439;-58
2022/04/19 04:40:13;;;;;;;9.55;5.25;;;;;;;5.19;100.00;95886.53;5098540;28;20444;-57
2022/04/19 04:42:41;;;;;;;6.80;5.57;;;;;;;5.07;100.00;95890.16;5106713;27;20071;-54
2022/04/19 04:45:10;;;;;;;5.72;5.18;;;;;;;5.07;100.00;95890.16;5104417;27;20106;-54
2022/04/19 04:50:25;;;;;;;6.93;5.32;;;;;;;5.54;100.00;95876.72;5103004;28;20072;-59
2022/04/19 04:52:54;;;;;;;6.68;5.28;;;;;;;5.48;100.00;95878.09;5100250;27;20070;-51
2022/04/19 04:55:23;;;;;;;6.85;5.20;;;;;;;5.62;100.00;95884.78;5103764;27;20062;-55
2022/04/19 04:57:56;;;;;;;5.53;5.00;;;;;;;5.76;100.00;95875.78;5103141;28;20051;-56
2022/04/19 05:00:25;;;;;;;6.35;5.50;;;;;;;5.54;100.00;95874.97;5103650;27;20090;-55
2022/04/19 05:02:53;;;;;;;12.20;5.88;;;;;;;6.21;100.00;95870.22;5105514;27;20688;-57
2022/04/19 05:05:21;;;;;;;6.22;5.63;;;;;;;6.23;100.00;95871.75;5105262;27;20063;-54
2022/04/19 05:07:52;;;;;;;6.70;5.30;;;;;;;6.18;100.00;95872.13;5109060;27;20556;-57
2022/04/19 05:10:20;;;;;;;5.40;4.90;;;;;;;6.33;100.00;95872.63;5110415;27;20064;-57
2022/04/19 05:12:48;;;;;;;5.55;5.03;;;;;;;6.59;100.00;95874.75;5103214;27;20088;-59
2022/04/19 05:15:17;;;;;;;6.43;5.63;;;;;;;6.88;100.00;95870.41;5101686;28;20082;-57
2022/04/19 05:17:45;;;;;;;5.85;4.95;;;;;;;6.95;100.00;95873.31;5103057;27;20720;-59
2022/04/19 05:20:13;;;;;;;6.15;5.05;;;;;;;7.13;100.00;95869.03;5104436;27;20072;-57
2022/04/19 05:22:41;;;;;;;8.98;5.25;;;;;;;8.00;100.00;95873.31;5104930;27;20497;-56
2022/04/19 05:25:11;;;;;;;5.43;4.72;;;;;;;8.41;100.00;95870.41;5100580;28;20067;-56
2022/04/19 05:27:39;;;;;;;5.55;4.80;;;;;;;8.07;100.00;95874.38;5101941;27;20098;-57
2022/04/19 05:30:09;;;;;;;5.68;4.70;;;;;;;7.08;100.00;95878.25;5103400;27;20072;-55
2022/04/19 05:32:37;;;;;;;5.37;4.67;;;;;;;7.46;100.00;95880.03;5112061;27;20070;-54
2022/04/19 05:35:08;;;;;;;8.30;5.00;;;;;;;7.82;100.00;95882.91;5102775;27;20783;-54
2022/04/19 05:37:37;;;;;;;7.95;5.10;;;;;;;7.94;100.00;95888.78;5102410;27;20051;-56
2022/04/19 05:40:07;;;;;;;5.97;4.88;;;;;;;8.18;100.00;95889.13;5105695;27;20070;-52
2022/04/19 05:42:36;;;;;;;6.85;5.00;;;;;;;8.13;100.00;95878.25;5087272;28;20067;-54
2022/04/19 05:45:06;;;;;;;7.25;5.90;;;;;;;8.35;100.00;95876.22;5101067;27;20469;-56
2022/04/19 05:47:35;;;;;;;7.60;4.82;;;;;;;8.38;100.00;95879.41;5099808;27;20063;-55
2022/04/19 05:50:03;;;;;;;5.57;4.75;;;;;;;7.77;100.00;95874.59;5103989;27;20068;-53
2022/04/19 05:52:31;;;;;;;5.38;4.88;;;;;;;8.42;100.00;95879.94;5106856;27;20505;-55
2022/04/19 05:55:00;;;;;;;6.05;4.78;;;;;;;8.32;100.00;95886.03;5102723;27;20604;-55
2022/04/19 05:57:28;;;;;;;10.27;5.13;;;;;;;8.38;100.00;95878.59;5101342;27;20070;-57
2022/04/19 05:59:58;;;;;;;6.18;4.90;;;;;;;8.62;100.00;95888.56;5101494;27;20087;-58
2022/04/19 06:05:12;;;;;;;5.32;4.55;;;;;;;8.57;100.00;95881.13;5106446;27;20461;-54
2022/04/19 06:07:44;;;;;;;6.65;4.88;;;;;;;8.79;100.00;95891.22;5100266;27;20063;-56
2022/04/19 06:10:14;;;;;;;6.97;4.40;;;;;;;8.89;100.00;95885.91;5101017;27;20079;-57
2022/04/19 06:12:42;;;;;;;6.20;4.73;;;;;;;8.83;100.00;95893.56;5101677;27;20067;-54
2022/04/19 06:15:12;;;;;;;6.18;5.05;;;;;;;8.53;100.00;95893.75;5100471;27;20492;-53
2022/04/19 06:17:41;;;;;;;6.10;5.00;;;;;;;8.78;100.00;95894.03;5100198;27;20334;-55
2022/04/19 06:20:09;;;;;;;5.45;4.50;;;;;;;8.39;100.00;95890.75;5101039;27;20072;-54
2022/04/19 06:22:38;;;;;;;5.68;4.68;;;;;;;8.79;100.00;95885.16;5099150;27;20073;-60
2022/04/19 06:25:07;;;;;;;4.85;4.40;;;;;;;8.73;100.00;95891.81;5101260;27;20062;-55
2022/04/19 06:27:36;;;;;;;6.05;4.90;;;;;;;8.85;100.00;95879.31;5100740;27;20078;-54
2022/04/19 06:30:05;;;;;;;8.35;4.90;;;;;;;8.73;100.00;95878.66;5100544;27;20079;-56
2022/04/19 06:32:35;;;;;;;5.50;4.80;;;;;;;9.30;100.00;95867.06;5098270;27;20062;-54
2022/04/19 06:35:03;;;;;;;8.27;4.83;;;;;;;9.24;100.00;95871.13;5100548;28;20066;-51
2022/04/19 06:37:31;;;;;;;7.15;4.80;;;;;;;8.82;100.00;95868.25;5098709;27;20442;-57
2022/04/19 06:40:07;;;;;;;9.57;4.93;;;;;;;8.51;100.00;95871.19;5101225;27;20071;-54
2022/04/19 06:42:35;;;;;;;6.37;4.90;;;;;;;8.94;100.00;95870.50;5096277;27;20082;-52
2022/04/19 06:45:04;;;;;;;5.68;4.85;;;;;;;8.93;100.00;95868.03;5096824;27;20512;-59
2022/04/19 06:47:34;;;;;;;9.80;4.70;;;;;;;8.98;100.00;95866.63;5099305;27;20060;-54
2022/04/19 06:50:05;;;;;;;5.22;4.50;;;;;;;9.19;100.00;95878.66;5100181;27;20059;-53
2022/04/19 06:52:34;;;;;;;7.75;5.05;;;;;;;9.44;100.00;95863.91;5098692;27;20056;-56
2022/04/19 06:55:04;;;;;;;5.10;4.60;;;;;;;9.70;100.00;95863.91;5098959;27;20062;-56
2022/04/19 06:57:39;;;;;;;6.60;4.78;;;;;;;9.94;100.00;95861.47;5100045;28;20071;-57
2022/04/19 07:00:08;;;;;;;10.68;5.38;;;;;;;10.18;100.00;95866.03;5096726;28;20189;-58
2022/04/19 07:02:37;;;;;;;7.20;4.57;;;;;;;9.62;100.00;95867.31;5097960;28;20068;-56
2022/04/19 07:05:07;;;;;;;6.63;5.20;;;;;;;10.05;100.00;95868.28;5097950;27;20059;-56
2022/04/19 07:07:37;;;;;;;5.40;4.85;;;;;;;10.48;100.00;95871.81;5097910;28;20548;-56
2022/04/19 07:10:07;;;;;;;6.55;5.07;;;;;;;10.44;100.00;95870.47;5098541;27;20453;-55
2022/04/19 07:12:36;;;;;;;5.70;4.60;;;;;;;10.50;100.00;95874.31;5101273;27;20124;-52
2022/04/19 07:15:05;;;;;;;9.63;5.38;;;;;;;10.49;100.00;95867.38;5109562;27;20063;-57
2022/04/19 07:17:37;;;;;;;7.13;4.93;;;;;;;10.83;100.00;95867.31;5103899;27;20063;-57
2022/04/19 07:28:26;;;;;;;5.68;5.00;;;;;;;11.71;100.00;95862.31;5089715;27;20044;-55
2022/04/19 07:30:54;;;;;;;6.90;4.38;;;;;;;11.65;100.00;95858.50;5107285;27;20071;-57
2022/04/19 07:33:22;;;;;;;5.18;4.47;;;;;;;12.19;93.48;95859.78;5104419;28;20086;-57
2022/04/19 07:35:54;;;;;;;6.10;5.10;;;;;;;12.14;97.34;95862.09;5103332;27;20100;-56
2022/04/19 07:38:22;;;;;;;6.05;4.85;;;;;;;11.91;98.89;95862.00;5103227;27;20121;-58
2022/04/19 07:40:51;;;;;;;7.13;4.90;;;;;;;12.61;87.12;95851.53;5108824;27;20078;-53
2022/04/19 07:43:19;;;;;;;6.43;4.82;;;;;;;12.75;87.15;95855.28;5083944;28;20078;-53
2022/04/19 07:45:48;;;;;;;5.75;4.72;;;;;;;11.83;88.71;95860.97;5108810;27;20059;-56
2022/04/19 07:48:16;;;;;;;7.47;4.88;;;;;;;12.66;86.87;95857.13;5103634;27;20558;-59
2022/04/19 07:50:44;;;;;;;5.63;4.78;;;;;;;12.57;89.95;95845.75;5104935;27;20063;-56
2022/04/19 07:53:14;;;;;;;6.32;5.45;;;;;;;12.61;91.42;95851.53;5100227;27;20537;-55
2022/04/19 07:55:42;;;;;;;5.63;4.45;;;;;;;12.35;86.07;95847.34;5104051;27;20059;-57
2022/04/19 07:58:10;;;;;;;6.70;5.00;;;;;;;12.37;88.77;95843.69;5099674;28;20074;-56
2022/04/19 08:00:38;;;;;;;6.25;4.50;;;;;;;12.44;84.39;95844.66;5107510;27;20075;-52
2022/04/19 08:03:07;;;;;;;6.28;5.05;;;;;;;12.70;85.95;95844.41;5107297;27;20090;-57
2022/04/19 08:05:35;;;;;;;8.43;4.88;;;;;;;12.30;85.31;95849.66;5118130;27;20057;-56
2022/04/19 08:08:04;;;;;;;6.65;4.72;;;;;;;12.75;79.06;95850.81;5105717;28;20541;-53
2022/04/19 08:10:34;;;;;;;5.85;4.60;;;;;;;13.01;76.12;95845.22;5117088;27;20070;-57
2022/04/19 08:13:03;;;;;;;8.27;5.07;;;;;;;13.68;77.21;95836.63;5116426;27;20078;-54
2022/04/19 08:15:32;;;;;;;6.32;4.95;;;;;;;14.18;69.53;95839.63;5121949;27;20525;-55
2022/04/19 08:18:06;;;;;;;6.60;5.00;;;;;;;14.12;66.11;95840.38;5110176;27;20145;-57
2022/04/19 08:20:35;;;;;;;5.80;4.70;;;;;;;14.17;65.56;95837.97;5113686;28;21790;-59
2022/04/19 08:23:03;;;;;;;5.40;4.45;;;;;;;14.29;65.90;95839.19;5115010;28;20059;-52
2022/04/19 08:25:32;;;;;;;6.05;4.93;;;;;;;14.45;66.82;95832.84;5108350;28;20056;-52
2022/04/19 08:28:02;;;;;;;6.70;4.80;;;;;;;14.98;57.09;95838.03;5127688;28;20059;-51
2022/04/19 08:30:30;;;;;;;6.03;4.50;;;;;;;15.08;57.14;95835.91;5114220;28;20091;-56
2022/04/19 08:32:59;;;;;;;5.82;4.63;;;;;;;15.09;50.33;95835.69;5107051;28;20528;-52
2022/04/19 08:35:27;;;;;;;6.15;4.70;;;;;;;14.57;54.76;95830.59;5112973;28;20074;-52
2022/04/19 08:37:56;;;;;;;4.68;4.03;;;;;;;14.22;58.82;95836.44;5105668;28;20070;-51
2022/04/19 08:40:26;;;;;;;7.25;4.53;;;;;;;14.15;58.59;95837.34;5094646;28;20873;-54
2022/04/19 08:42:56;;;;;;;5.20;4.32;;;;;;;14.47;57.24;95834.31;5097824;28;20055;-56
2022/04/19 08:45:26;;;;;;;6.17;4.50;;;;;;;15.09;51.97;95829.56;5094685;28;20142;-53
2022/04/19 08:47:57;;;;;;;;;;;;;;;14.87;51.60;95845.47;5103278;28;20074;-56
2022/04/19 08:50:25;;;;;;;5.85;4.40;;;;;;;15.34;52.45;95836.16;5108260;28;20393;-55
2022/04/19 08:58:21;;;;;;;6.43;4.47;;;;;;;15.96;50.73;95825.88;5096143;28;20086;-55
2022/04/19 09:00:51;;;;;;;5.07;4.22;;;;;;;16.38;46.35;95831.06;5103522;28;20647;-57
2022/04/19 09:03:20;;;;;;;4.70;4.18;;;;;;;16.19;46.63;95836.25;5101678;28;20079;-58
2022/04/19 09:05:53;;;;;;;5.85;4.03;;;;;;;16.16;47.67;95831.31;5104423;28;20441;-57
2022/04/19 09:08:21;;;;;;;7.38;4.47;;;;;;;16.27;46.50;95831.59;5104706;28;20063;-53
2022/04/19 09:10:51;;;;;;;5.13;4.53;;;;;;;15.94;46.49;95823.41;5117093;28;20081;-58
2022/04/19 09:13:21;;;;;;;4.90;4.07;;;;;;;15.43;46.89;95832.34;5103906;28;20083;-55
2022/04/19 09:15:54;;;;;;;5.35;4.25;;;;;;;15.84;46.21;95833.56;5100184;28;20066;-54
2022/04/19 09:18:26;;;;;;;6.95;4.20;;;;;;;16.13;44.51;95830.69;5112952;28;20082;-58
2022/04/19 09:20:55;;;;;;;5.88;4.18;;;;;;;16.27;45.46;95841.41;5102491;28;20078;-56
2022/04/19 09:23:25;;;;;;;5.35;4.03;;;;;;;16.83;43.40;95828.84;5099798;28;20457;-58
2022/04/19 09:25:54;;;;;;;5.90;4.40;;;;;;;16.94;44.24;95831.97;5106779;27;20070;-53
2022/04/19 09:28:23;;;;;;;4.82;4.15;;;;;;;16.63;42.81;95835.09;5105740;27;20063;-60
2022/04/19 09:30:56;;;;;;;4.20;3.60;;;;;;;16.00;43.83;95835.94;5108798;27;20066;-54
2022/04/19 09:33:25;;;;;;;5.43;4.15;;;;;;;16.80;43.91;95826.59;5104333;27;20537;-56
2022/04/19 09:35:55;;;;;;;4.60;4.18;;;;;;;15.40;46.90;95822.09;5105913;27;20082;-55
2022/04/19 09:38:37;;;;;;;5.25;3.75;;;;;;;15.53;50.21;95820.59;5110176;27;20059;-54
2022/04/19 09:41:06;;;;;;;4.43;3.80;;;;;;;15.61;47.58;95815.13;5105106;27;20071;-51
2022/04/19 09:44:05;;;;;;;6.47;4.28;;;;;;;16.67;44.24;95823.00;5110489;27;20073;-58
2022/04/19 09:46:36;;;;;;;5.63;4.03;;;;;;;16.74;44.20;95816.72;5085908;27;20123;-54
2022/04/19 09:49:05;;;;;;;4.63;3.75;;;;;;;16.21;45.04;95824.41;5107192;27;20055;-57
2022/04/19 09:51:34;;;;;;;5.00;3.60;;;;;;;16.16;42.42;95823.34;5104251;27;20086;-56
2022/04/19 09:54:03;;;;;;;5.05;3.65;;;;;;;15.93;41.39;95827.06;5108956;27;20086;-52
2022/04/19 09:56:34;;;;;;;4.47;3.95;;;;;;;16.64;42.44;95816.25;5109820;27;20055;-54
2022/04/19 09:59:20;;;;;;;4.63;3.65;;;;;;;16.19;44.17;95812.31;5104830;28;20068;-55
2022/04/19 10:10:14;;;;;;;6.57;3.88;;;;;;;17.24;40.83;95800.47;5094745;27;20056;-57
2022/04/19 10:12:44;;;;;;;5.88;3.58;;;;;;;17.19;39.52;95798.41;5101857;27;20075;-53
2022/04/19 10:15:13;;;;;;;4.07;3.03;;;;;;;17.20;39.83;95807.22;5108979;27;20087;-56
2022/04/19 10:17:43;;;;;;;4.88;2.90;;;;;;;16.11;39.12;95798.16;5102339;27;20378;-52
2022/04/19 10:20:12;;;;;;;4.53;3.20;;;;;;;16.23;40.55;95794.94;5106074;27;20090;-55
2022/04/19 10:22:46;;;;;;;3.90;3.22;;;;;;;16.04;42.34;95793.81;5105549;27;20079;-61
2022/04/19 10:25:15;;;;;;;3.95;3.30;;;;;;;16.66;41.39;95797.41;5100191;28;20482;-53
2022/04/19 10:27:44;;;;;;;3.95;3.20;;;;;;;16.12;41.02;95791.81;5110982;27;20062;-53
2022/04/19 10:30:17;;;;;;;8.68;3.88;;;;;;;16.29;42.08;95786.19;5103376;27;20481;-53
2022/04/19 10:32:47;;;;;;;4.72;3.60;;;;;;;16.79;40.05;95790.34;5102036;27;20056;-50
2022/04/19 10:35:16;;;;;;;5.13;3.50;;;;;;;16.53;42.29;95782.22;5083360;28;20063;-52
2022/04/19 10:37:46;;;;;;;4.43;3.90;;;;;;;16.02;43.10;95783.38;5099132;28;20067;-53
2022/04/19 10:40:15;;;;;;;11.68;3.85;;;;;;;16.28;42.53;95780.06;5095173;28;20036;-56
2022/04/19 10:42:44;;;;;;;4.85;3.80;;;;;;;16.68;41.83;95772.22;5091952;28;20059;-56
2022/04/19 10:45:30;;;;;;;4.32;3.50;;;;;;;16.26;41.75;95774.09;5103021;28;20079;-54
2022/04/19 10:48:07;;;;;;;5.50;3.38;;;;;;;16.78;40.80;95766.56;5115230;27;20063;-57
2022/04/19 10:50:39;;;;;;;4.38;3.17;;;;;;;17.31;40.34;95756.00;5118313;27;20062;-54
2022/04/19 10:53:12;;;;;;;4.68;3.50;;;;;;;16.64;41.35;95765.66;5119892;27;20472;-56
2022/04/19 10:55:41;;;;;;;4.43;3.65;;;;;;;16.61;42.34;95768.72;5107572;27;20067;-58
2022/04/19 10:58:17;;;;;;;5.13;3.67;;;;;;;17.28;40.35;95754.56;5122866;27;20122;-54
2022/04/19 11:00:48;;;;;;;4.85;3.50;;;;;;;16.95;41.15;95759.03;5104411;27;20067;-56
2022/04/19 11:03:50;;;;;;;4.68;3.53;;;;;;;17.40;40.22;95748.63;5116242;27;20075;-52
2022/04/19 11:06:37;;;;;;;3.67;2.83;;;;;;;16.48;39.60;95758.00;5116259;27;20083;-57
2022/04/19 11:09:21;;;;;;;5.13;2.97;;;;;;;16.26;39.82;95752.81;5113512;27;20132;-52
2022/04/19 11:11:51;;;;;;;3.58;2.88;;;;;;;16.13;41.01;95758.88;5121084;27;20619;-54
2022/04/19 11:14:45;;;;;;;4.20;3.13;;;;;;;16.73;40.47;95742.34;5115293;27;20110;-54
2022/04/19 11:17:21;;;;;;;3.10;2.80;;;;;;;16.32;39.72;95746.69;5109408;27;20070;-53
2022/04/19 11:20:10;;;;;;;5.70;3.08;;;;;;;16.74;40.21;95744.84;5121190;27;20066;-56
2022/04/19 11:22:47;;;;;;;3.22;2.92;;;;;;;16.78;39.97;95742.59;5113729;27;20716;-53
2022/04/19 11:25:16;;;;;;;3.20;2.90;;;;;;;17.25;38.80;95730.19;5112394;27;20078;-57
2022/04/19 11:28:23;;;;;;;3.40;2.70;;;;;;;17.02;39.07;95733.22;5107381;27;20039;-54
2022/04/19 11:31:19;;;;;;;3.65;2.20;;;;;;;17.28;39.40;95724.44;5112770;27;20069;-53
2022/04/19 11:33:48;;;;;;;3.80;2.65;;;;;;;17.67;38.57;95728.13;5102113;27;20521;-56
2022/04/19 11:36:19;;;;;;;3.80;2.67;;;;;;;17.72;38.40;95714.97;5115708;27;20090;-59
2022/04/19 11:38:49;;;;;;;5.57;3.25;;;;;;;17.55;38.25;95712.75;5105105;27;20291;-57
2022/04/19 11:47:01;;;;;;;3.85;3.00;;;;;;;17.64;38.58;95708.00;5106051;27;20063;-54
2022/04/19 11:49:34;;;;;;;2.05;1.85;;;;;;;16.75;38.72;95706.53;5109466;27;20459;-54
2022/04/19 11:52:09;;;;;;;3.83;2.78;;;;;;;17.04;39.17;95704.53;5122667;27;20061;-54
2022/04/19 11:54:38;;;;;;;3.33;3.03;;;;;;;17.53;39.58;95701.47;5121715;27;20078;-55
2022/04/19 11:57:07;;;;;;;5.18;3.50;;;;;;;17.37;39.52;95709.88;5098263;28;20059;-57
2022/04/19 11:59:36;;;;;;;4.03;2.88;;;;;;;17.30;38.96;95707.19;5112099;27;20071;-58
2022/04/19 12:02:12;;;;;;;3.90;3.50;;;;;;;17.24;39.45;95700.06;5109184;27;20059;-56
2022/04/19 12:04:49;;;;;;;4.18;3.30;;;;;;;17.79;39.32;95699.84;5104379;27;20472;-54
2022/04/19 12:07:19;;;;;;;4.38;3.10;;;;;;;17.81;39.52;95702.28;5123666;27;20051;-54
2022/04/19 12:09:48;;;;;;;5.50;3.30;;;;;;;17.73;39.34;95698.78;5108918;28;20058;-55
2022/04/19 12:12:16;;;;;;;5.45;3.55;;;;;;;17.98;38.52;95698.94;5116253;27;20517;-59
2022/04/19 12:14:49;;;;;;;3.65;3.25;;;;;;;18.27;38.36;95692.28;5106106;28;20067;-55
2022/04/19 12:17:24;;;;;;;4.78;3.15;;;;;;;17.81;39.47;95696.94;5112522;27;20438;-50
2022/04/19 12:20:01;;;;;;;4.60;3.30;;;;;;;18.16;40.06;95690.25;5105941;28;20070;-52
2022/04/19 12:22:33;;;;;;;5.25;3.88;;;;;;;19.11;38.17;95679.72;5112823;27;20059;-51
2022/04/19 12:25:03;;;;;;;4.45;3.58;;;;;;;18.23;39.19;95679.56;5099237;28;20036;-53
2022/04/19 12:27:34;;;;;;;5.75;3.80;;;;;;;18.48;38.79;95677.81;5104706;28;20082;-51